Time;durP1;ratioP1;P1;durP2;ratioP2;P2;SDS_P1;SDS_P2;PMS_P1;PMS_P2;Temp;Humidity;BMP_temperature;BMP_pressure;BME280_temperature;BME280_humidity;BME280_pressure;Samples;Min_cycle;Max_cycle;Signal;HPM_P1;HPM_P2
2023/01/18 00:01:57;;;;;;;17.60;11.32;;;;;;;16.05;45.14;90371.34;4982969;28;20447;-88
2023/01/18 00:04:22;;;;;;;15.25;11.95;;;;;;;16.07;45.23;90374.94;4998706;28;20517;-90
2023/01/18 00:06:48;;;;;;;15.82;12.68;;;;;;;16.10;46.36;90376.53;4982852;28;20505;-88
2023/01/18 00:09:13;;;;;;;18.05;12.40;;;;;;;16.08;45.29;90379.09;4960811;28;20465;-88
2023/01/18 00:11:39;;;;;;;16.90;12.30;;;;;;;16.11;45.48;90377.25;4976790;28;20097;-89
2023/01/18 00:14:05;;;;;;;15.82;12.70;;;;;;;16.05;45.34;90387.69;4969306;28;20058;-91
2023/01/18 00:16:30;;;;;;;19.83;12.82;;;;;;;16.06;45.48;90383.66;4968352;28;20038;-88
2023/01/18 00:18:56;;;;;;;14.23;11.63;;;;;;;16.06;45.14;90384.38;4980611;28;20085;-88
2023/01/18 00:21:22;;;;;;;15.73;11.63;;;;;;;16.04;45.29;90397.84;4971720;28;21314;-89
2023/01/18 00:23:47;;;;;;;17.10;13.13;;;;;;;16.06;45.44;90383.66;4986854;28;20133;-89
2023/01/18 00:26:13;;;;;;;16.45;11.18;;;;;;;16.04;45.15;90394.41;4995266;28;20068;-90
2023/01/18 00:28:38;;;;;;;19.85;12.90;;;;;;;16.08;45.22;90389.28;4979922;28;20039;-90
2023/01/18 00:31:14;;;;;;;18.23;12.57;;;;;;;16.06;45.31;90405.47;4976187;28;20055;-91
2023/01/18 00:33:44;;;;;;;16.27;11.27;;;;;;;16.05;45.50;90395.84;4960209;28;20058;-88
2023/01/18 00:36:09;;;;;;;14.77;11.07;;;;;;;16.03;45.32;90390.97;4980403;28;20085;-90
2023/01/18 00:38:34;;;;;;;20.38;12.07;;;;;;;16.05;45.75;90387.69;4993824;28;20046;-89
2023/01/18 00:41:00;;;;;;;20.92;14.75;;;;;;;16.14;46.85;90383.56;4976781;28;20039;-88
2023/01/18 00:43:37;;;;;;;17.80;11.75;;;;;;;16.07;45.29;90379.66;4972926;28;20049;-88
2023/01/18 00:46:06;;;;;;;23.27;14.50;;;;;;;16.06;46.54;90376.22;4995211;28;20042;-89
2023/01/18 00:48:32;;;;;;;15.23;10.98;;;;;;;16.05;45.31;90382.94;5009670;28;20041;-91
2023/01/18 00:50:57;;;;;;;15.85;10.63;;;;;;;16.06;45.33;90376.22;4990021;28;20034;-88
2023/01/18 00:53:22;;;;;;;13.27;10.57;;;;;;;16.05;45.29;90374.78;4989694;28;20038;-88
2023/01/18 00:55:48;;;;;;;15.77;10.43;;;;;;;16.07;45.92;90376.94;4990056;28;20034;-89
2023/01/18 00:58:13;;;;;;;14.23;10.63;;;;;;;16.07;45.29;90385.09;4981106;28;20054;-88
2023/01/18 01:00:39;;;;;;;15.98;10.90;;;;;;;16.07;45.17;90374.22;4981216;28;20038;-92
2023/01/18 01:03:04;;;;;;;15.25;12.10;;;;;;;16.06;45.54;90378.94;4982396;28;20038;-90
2023/01/18 01:08:17;;;;;;;12.35;9.52;;;;;;;16.02;45.43;90369.78;4990158;28;20057;-90
2023/01/18 01:10:47;;;;;;;14.38;10.60;;;;;;;16.04;45.16;90375.34;4985203;28;20453;-90
2023/01/18 01:27:04;;;;;;;14.93;10.50;;;;;;;16.03;45.44;90379.34;5008614;28;20056;-90
2023/01/18 01:29:29;;;;;;;14.20;10.10;;;;;;;16.01;45.51;90388.13;4990621;28;20034;-88
2023/01/18 01:31:55;;;;;;;14.20;9.88;;;;;;;16.03;45.43;90393.69;4988806;28;20389;-90
2023/01/18 01:34:20;;;;;;;15.55;11.30;;;;;;;16.02;46.25;90375.22;4975583;28;20485;-90
2023/01/18 01:36:45;;;;;;;11.93;9.48;;;;;;;16.02;45.58;90381.34;5008690;28;20126;-88
2023/01/18 01:39:11;;;;;;;14.00;10.30;;;;;;;16.01;45.77;90376.50;5008326;28;20050;-90
2023/01/18 01:41:36;;;;;;;19.23;13.75;;;;;;;16.03;46.04;90373.91;4990891;28;20066;-90
2023/01/18 01:44:32;;;;;;;11.68;9.60;;;;;;;15.99;45.32;90371.63;4988847;28;20067;-88
2023/01/18 01:47:01;;;;;;;16.75;11.20;;;;;;;16.02;45.71;90369.78;5000635;28;20073;-88
2023/01/18 01:49:32;;;;;;;15.57;10.43;;;;;;;16.03;45.61;90363.72;4978290;28;20567;-92
2023/01/18 01:52:01;;;;;;;14.80;11.38;;;;;;;16.06;45.77;90357.16;4991593;28;20416;-89
2023/01/18 01:54:35;;;;;;;13.90;9.48;;;;;;;16.02;45.51;90356.16;4977440;28;20132;-90
2023/01/18 01:57:06;;;;;;;13.57;9.77;;;;;;;15.99;45.85;90349.81;4988661;28;20505;-88
2023/01/18 01:59:33;;;;;;;14.27;10.88;;;;;;;16.02;45.64;90343.22;4994665;28;20087;-89
2023/01/18 02:01:58;;;;;;;18.52;12.30;;;;;;;16.05;46.37;90342.09;4991154;28;20044;-88
2023/01/18 02:04:24;;;;;;;16.60;12.02;;;;;;;16.03;45.89;90331.03;4983801;28;20037;-89
2023/01/18 02:06:49;;;;;;;16.70;11.50;;;;;;;16.05;46.15;90336.63;4976651;28;20050;-88
2023/01/18 02:09:14;;;;;;;12.90;9.18;;;;;;;16.03;45.35;90331.03;4989986;28;20049;-90
2023/01/18 02:11:40;;;;;;;13.50;9.10;;;;;;;16.00;45.78;90331.47;4981732;28;20189;-89
2023/01/18 02:14:08;;;;;;;14.45;9.65;;;;;;;16.03;45.71;90325.59;4974585;28;20042;-92
2023/01/18 02:16:58;;;;;;;12.85;8.73;;;;;;;16.00;45.54;90331.47;4974542;28;20042;-90
2023/01/18 02:19:58;;;;;;;12.23;8.90;;;;;;;16.02;45.22;90337.75;5010532;28;20678;-91
2023/01/18 02:22:44;;;;;;;14.68;9.52;;;;;;;16.08;45.66;90326.59;4976275;28;20045;-92
2023/01/18 02:25:46;;;;;;;16.80;11.05;;;;;;;16.07;45.97;90336.06;5010694;28;20056;-89
2023/01/18 02:28:16;;;;;;;18.70;13.45;;;;;;;16.08;46.21;90330.03;4983798;28;20057;-91
2023/01/18 02:31:01;;;;;;;14.25;9.82;;;;;;;16.04;45.42;90329.75;4994958;28;20548;-90
2023/01/18 02:33:33;;;;;;;11.98;8.80;;;;;;;15.99;45.62;90340.94;5009420;28;20076;-89
2023/01/18 02:36:01;;;;;;;22.77;14.32;;;;;;;16.03;46.03;90350.09;4978780;28;20642;-89
2023/01/18 02:38:43;;;;;;;12.82;8.43;;;;;;;16.00;45.80;90339.66;4994290;28;20068;-88
2023/01/18 02:47:09;;;;;;;20.08;14.02;;;;;;;16.03;45.83;90384.81;4994705;28;20107;-88
2023/01/18 02:49:34;;;;;;;17.92;13.32;;;;;;;16.00;45.98;90389.41;4971716;28;20038;-89
2023/01/18 02:52:01;;;;;;;17.02;12.02;;;;;;;16.04;46.77;90392.41;4967930;28;20053;-88
2023/01/18 02:54:27;;;;;;;12.45;9.55;;;;;;;15.98;45.54;90400.16;4950534;28;20038;-90
2023/01/18 02:56:52;;;;;;;14.65;9.07;;;;;;;16.01;45.53;90403.75;4970935;28;20109;-91
2023/01/18 02:59:28;;;;;;;10.60;8.52;;;;;;;15.98;46.22;90402.88;4949410;28;20544;-91
2023/01/18 03:02:02;;;;;;;27.30;18.58;;;;;;;16.05;46.46;90404.75;4965782;28;20129;-91
2023/01/18 03:04:30;;;;;;;15.55;10.50;;;;;;;16.03;45.64;90401.16;4968401;28;20046;-88
2023/01/18 03:07:04;;;;;;;12.35;10.35;;;;;;;16.02;46.49;90411.31;4954969;28;20066;-89
2023/01/18 03:09:29;;;;;;;11.85;8.68;;;;;;;15.99;45.27;90417.22;4967507;28;20038;-89
2023/01/18 03:12:01;;;;;;;15.55;10.43;;;;;;;16.02;45.65;90424.94;4963741;28;20078;-90
2023/01/18 03:14:33;;;;;;;14.00;8.48;;;;;;;16.01;45.85;90422.81;4946544;28;20783;-89
2023/01/18 03:17:19;;;;;;;12.27;9.40;;;;;;;15.99;45.98;90426.09;4983137;28;20047;-88
2023/01/18 03:25:31;;;;;;;14.40;9.75;;;;;;;16.00;46.27;90426.84;4978509;28;20251;-90
2023/01/18 03:33:46;;;;;;;11.98;8.73;;;;;;;15.98;45.74;90441.03;4972823;28;20065;-90
2023/01/18 03:36:26;;;;;;;14.63;9.15;;;;;;;15.96;45.69;90440.13;4954998;28;20043;-88
2023/01/18 03:38:56;;;;;;;14.32;11.00;;;;;;;15.97;46.08;90439.56;4976423;28;20493;-89
2023/01/18 03:41:22;;;;;;;11.52;7.72;;;;;;;15.94;45.73;90437.97;4957857;28;20093;-89
2023/01/18 03:43:47;;;;;;;13.55;9.02;;;;;;;15.97;45.65;90450.47;4971531;28;20599;-89
2023/01/18 03:46:13;;;;;;;28.83;18.10;;;;;;;16.00;46.11;90445.91;4957958;28;20038;-89
2023/01/18 03:48:38;;;;;;;13.63;10.10;;;;;;;16.01;45.52;90452.78;4974208;28;20133;-90
2023/01/18 03:51:03;;;;;;;10.48;7.55;;;;;;;15.98;45.40;90446.47;4990687;28;20461;-89
2023/01/18 03:53:37;;;;;;;16.80;11.73;;;;;;;16.03;46.56;90448.19;5009155;28;20054;-90
2023/01/18 03:56:13;;;;;;;12.13;9.27;;;;;;;16.05;46.84;90444.91;4990911;28;20057;-90
2023/01/18 03:58:41;;;;;;;10.98;8.48;;;;;;;16.03;45.70;90445.47;4968423;28;20042;-90
2023/01/18 04:01:06;;;;;;;9.05;6.95;;;;;;;15.99;45.41;90449.91;4994166;28;20041;-88
2023/01/18 04:03:32;;;;;;;12.05;8.32;;;;;;;15.98;45.47;90460.09;4992280;28;20345;-88
2023/01/18 04:05:58;;;;;;;11.38;7.95;;;;;;;15.99;45.45;90453.34;4974754;28;20038;-88
2023/01/18 04:08:24;;;;;;;13.63;9.05;;;;;;;15.96;45.88;90457.22;4976075;28;20380;-88
2023/01/18 04:10:49;;;;;;;13.55;8.40;;;;;;;16.00;45.73;90445.91;4993934;28;20045;-91
2023/01/18 04:13:14;;;;;;;9.85;6.70;;;;;;;15.97;45.56;90449.75;4993364;28;20377;-90
2023/01/18 04:15:40;;;;;;;10.25;8.07;;;;;;;16.01;45.69;90452.78;4977091;28;20034;-88
2023/01/18 04:18:05;;;;;;;15.80;11.27;;;;;;;16.01;46.52;90458.25;4993613;28;20038;-88
2023/01/18 04:20:31;;;;;;;15.32;10.13;;;;;;;16.00;45.51;90456.81;4990444;28;20725;-90
2023/01/18 04:22:56;;;;;;;16.27;12.13;;;;;;;16.00;46.34;90462.97;4980389;28;20046;-89
2023/01/18 04:25:22;;;;;;;12.05;8.32;;;;;;;15.94;45.58;90467.22;4987991;28;20054;-90
2023/01/18 04:27:47;;;;;;;11.30;7.57;;;;;;;15.94;45.74;90470.66;4974024;28;20466;-91
2023/01/18 04:30:12;;;;;;;14.98;9.63;;;;;;;15.98;46.73;90475.72;4970546;28;20461;-89
2023/01/18 04:32:38;;;;;;;17.77;13.30;;;;;;;15.98;46.22;90483.88;4973874;28;20058;-89
2023/01/18 04:35:04;;;;;;;11.23;8.07;;;;;;;15.94;45.71;90487.03;4971892;28;20045;-88
2023/01/18 04:37:32;;;;;;;12.30;8.13;;;;;;;15.94;45.64;90484.28;4975130;28;20034;-88
2023/01/18 04:39:58;;;;;;;17.38;13.85;;;;;;;16.05;46.29;90486.50;4974868;28;20039;-91
2023/01/18 04:42:24;;;;;;;11.50;7.65;;;;;;;15.96;45.81;90495.34;5003136;28;20052;-90
2023/01/18 04:44:50;;;;;;;21.73;13.98;;;;;;;15.99;46.00;90498.94;4989930;28;20038;-89
2023/01/18 04:47:16;;;;;;;15.55;11.15;;;;;;;15.97;45.48;90496.06;4972533;28;20093;-89
2023/01/18 04:49:41;;;;;;;10.55;7.97;;;;;;;16.00;45.48;90505.84;4992356;28;20057;-89
2023/01/18 04:52:08;;;;;;;11.32;8.60;;;;;;;15.99;46.00;90505.13;5009230;28;20088;-89
2023/01/18 04:54:33;;;;;;;10.80;8.70;;;;;;;16.00;45.84;90505.84;4973962;28;20042;-90
2023/01/18 04:56:59;;;;;;;11.57;7.88;;;;;;;15.94;45.49;90506.09;4987050;28;20037;-89
2023/01/18 04:59:24;;;;;;;12.70;9.50;;;;;;;15.96;47.05;90506.25;4989167;28;20065;-88
2023/01/18 05:01:50;;;;;;;12.10;9.13;;;;;;;15.95;45.89;90504.09;4992980;28;20026;-87
2023/01/18 05:04:15;;;;;;;16.25;12.18;;;;;;;15.98;46.33;90509.13;5009029;28;20065;-89
2023/01/18 05:06:40;;;;;;;12.32;8.30;;;;;;;15.97;46.43;90507.69;4973166;28;20481;-91
2023/01/18 05:09:06;;;;;;;10.07;6.78;;;;;;;15.91;45.72;90509.22;4992425;28;20038;-89
2023/01/18 05:11:32;;;;;;;14.40;10.10;;;;;;;15.97;45.95;90504.25;4992481;28;20049;-89
2023/01/18 05:13:58;;;;;;;12.10;8.25;;;;;;;15.97;47.01;90512.41;4992775;28;20042;-89
2023/01/18 05:16:23;;;;;;;12.40;8.43;;;;;;;16.01;46.58;90501.84;4972520;28;20123;-90
2023/01/18 05:18:50;;;;;;;13.90;9.05;;;;;;;15.97;46.82;90502.25;4992512;28;20033;-89
2023/01/18 05:21:15;;;;;;;12.23;7.75;;;;;;;15.91;45.82;90501.03;4992037;28;20100;-89
2023/01/18 05:23:40;;;;;;;9.50;6.90;;;;;;;15.96;45.77;90502.81;4993039;28;20492;-90
2023/01/18 05:26:13;;;;;;;15.25;11.27;;;;;;;15.98;46.27;90511.84;4973225;28;20049;-91
2023/01/18 05:28:39;;;;;;;12.82;8.70;;;;;;;15.96;45.39;90514.41;4993554;28;20406;-89
2023/01/18 05:31:04;;;;;;;15.88;12.10;;;;;;;16.08;46.36;90520.06;5014354;28;20034;-87
2023/01/18 05:33:30;;;;;;;18.48;8.05;;;;;;;16.14;46.37;90522.53;5006081;28;20049;-92
2023/01/18 05:35:55;;;;;;;10.32;7.35;;;;;;;16.16;45.88;90528.16;4994529;28;20053;-92
2023/01/18 05:38:21;;;;;;;14.75;6.72;;;;;;;16.20;45.65;90537.34;4975478;28;20046;-93
2023/01/18 05:40:47;;;;;;;7.43;5.75;;;;;;;16.19;45.45;90546.81;4975511;28;20042;-90
2023/01/18 05:43:13;;;;;;;11.82;6.18;;;;;;;16.23;45.31;90551.88;4973954;28;20576;-89
2023/01/18 05:45:38;;;;;;;6.95;5.55;;;;;;;16.26;45.41;90556.16;5000716;28;20038;-88
2023/01/18 05:48:04;;;;;;;21.92;14.05;;;;;;;16.27;47.04;90558.31;4997862;28;20509;-88
2023/01/18 05:50:29;;;;;;;8.95;6.47;;;;;;;16.22;45.27;90561.31;4969384;28;20096;-89
2023/01/18 05:52:58;;;;;;;24.40;13.27;;;;;;;16.11;43.67;90562.53;4964044;28;20535;-90
2023/01/18 05:55:24;;;;;;;67.53;16.50;;;;;;;15.99;43.50;90567.06;4984895;28;20433;-88
2023/01/18 05:57:50;;;;;;;55.97;16.38;;;;;;;16.02;43.44;90565.94;4989708;28;20050;-87
2023/01/18 06:00:15;;;;;;;61.88;17.02;;;;;;;16.07;43.96;90571.13;4970295;28;20042;-90
2023/01/18 06:02:41;;;;;;;91.60;18.50;;;;;;;16.01;44.03;90567.94;4991259;28;20041;-88
2023/01/18 06:05:07;;;;;;;39.92;11.50;;;;;;;16.05;44.61;90568.22;4991450;28;20042;-90
2023/01/18 06:07:32;;;;;;;89.95;22.02;;;;;;;16.16;46.75;90577.19;4989358;28;20053;-88
2023/01/18 06:09:58;;;;;;;97.88;26.38;;;;;;;16.15;45.01;90581.22;5006852;28;20042;-89
2023/01/18 06:12:23;;;;;;;75.95;27.95;;;;;;;16.14;45.39;90588.66;4971271;28;20070;-88
2023/01/18 06:14:49;;;;;;;111.63;41.72;;;;;;;16.15;45.50;90584.66;5000447;28;20045;-91
2023/01/18 06:17:15;;;;;;;141.18;45.97;;;;;;;16.16;45.24;90590.81;4987560;28;20085;-92
2023/01/18 06:19:40;;;;;;;196.00;60.17;;;;;;;16.08;44.92;90588.91;4974933;28;20576;-90
2023/01/18 06:22:05;;;;;;;216.70;61.70;;;;;;;16.05;44.93;90597.47;4971832;28;20049;-91
2023/01/18 06:24:31;;;;;;;168.48;53.80;;;;;;;16.05;44.54;90595.47;4974183;28;20042;-91
2023/01/18 06:26:58;;;;;;;145.60;55.35;;;;;;;15.96;43.20;90598.88;4995195;28;20042;-90
2023/01/18 06:29:23;;;;;;;176.80;59.58;;;;;;;15.95;43.25;90602.16;4994462;28;20073;-92
2023/01/18 06:31:49;;;;;;;184.02;59.42;;;;;;;15.97;43.05;90613.94;5009165;28;20096;-88
2023/01/18 06:34:14;;;;;;;206.13;71.45;;;;;;;15.96;43.05;90617.22;4992161;28;20042;-92
2023/01/18 06:36:40;;;;;;;163.40;70.13;;;;;;;15.95;42.91;90613.78;4977965;28;20059;-88
2023/01/18 06:39:05;;;;;;;168.85;63.97;;;;;;;15.93;42.41;90610.16;4992807;28;20042;-90
2023/01/18 06:41:32;;;;;;;170.90;65.10;;;;;;;15.92;43.32;90623.06;4989805;28;20030;-90
2023/01/18 06:43:57;;;;;;;167.27;67.40;;;;;;;16.02;43.92;90626.56;4992054;28;20046;-91
2023/01/18 06:46:23;;;;;;;159.43;67.22;;;;;;;16.01;44.29;90619.00;4971627;28;20050;-89
2023/01/18 06:48:48;;;;;;;171.23;65.43;;;;;;;16.00;44.19;90623.72;4970657;28;20041;-90
2023/01/18 06:51:14;;;;;;;146.05;62.58;;;;;;;16.00;44.36;90634.63;4984457;28;20034;-91
2023/01/18 06:53:39;;;;;;;159.57;67.60;;;;;;;16.02;44.30;90632.03;4980011;28;20041;-91
2023/01/18 06:56:09;;;;;;;175.02;77.00;;;;;;;16.06;44.28;90637.78;4978850;28;20076;-92
2023/01/18 06:58:36;;;;;;;175.02;75.20;;;;;;;16.10;43.87;90640.13;4988805;28;20040;-92
2023/01/18 07:01:02;;;;;;;183.32;78.22;;;;;;;16.06;44.01;90654.16;4983069;28;20038;-92
2023/01/18 07:03:28;;;;;;;171.88;81.38;;;;;;;16.08;44.75;90662.47;4981448;28;20073;-91
2023/01/18 07:05:54;;;;;;;190.73;84.95;;;;;;;16.12;44.50;90672.97;4996189;28;20053;-89
2023/01/18 07:08:20;;;;;;;189.35;87.78;;;;;;;15.99;43.75;90668.59;4990527;28;20561;-93
2023/01/18 07:10:47;;;;;;;171.07;82.32;;;;;;;16.15;43.02;90669.13;5012699;28;20037;-92
2023/01/18 07:13:13;;;;;;;164.27;81.78;;;;;;;16.20;42.65;90675.63;4982546;28;20103;-92
2023/01/18 07:15:39;;;;;;;171.35;87.65;;;;;;;16.30;43.72;90670.97;5000519;28;20030;-88
2023/01/18 07:18:04;;;;;;;166.82;82.90;;;;;;;16.37;43.62;90681.06;5007906;28;20053;-89
2023/01/18 07:20:30;;;;;;;164.00;84.00;;;;;;;16.37;43.77;90664.72;4997504;28;20515;-86
2023/01/18 07:22:57;;;;;;;155.57;84.95;;;;;;;16.42;43.81;90680.81;5030176;28;20037;-88
2023/01/18 07:25:23;;;;;;;148.70;81.18;;;;;;;16.31;43.21;90688.75;4980179;28;20085;-91
2023/01/18 07:27:48;;;;;;;154.77;81.70;;;;;;;16.24;43.75;90690.28;5017179;28;20030;-90
2023/01/18 07:30:15;;;;;;;138.85;73.13;;;;;;;16.19;43.84;90691.25;4984067;28;20041;-90
2023/01/18 07:32:47;;;;;;;146.63;73.72;;;;;;;16.20;43.40;90700.88;4998065;28;20639;-89
2023/01/18 07:35:13;;;;;;;158.82;82.75;;;;;;;16.18;43.82;90700.00;4998339;28;20111;-91
2023/01/18 07:37:38;;;;;;;178.32;83.53;;;;;;;16.16;43.81;90705.28;5000806;28;20690;-88
2023/01/18 07:40:04;;;;;;;124.30;61.25;;;;;;;16.01;42.62;90701.44;5014935;28;20042;-88
2023/01/18 07:42:30;;;;;;;112.88;54.25;;;;;;;15.97;41.48;90711.31;4992633;28;20076;-90
2023/01/18 07:44:55;;;;;;;122.00;57.22;;;;;;;15.98;41.98;90707.28;4972602;28;20046;-89
2023/01/18 07:47:21;;;;;;;124.85;58.80;;;;;;;16.01;41.88;90709.63;4977233;28;20050;-89
2023/01/18 07:49:47;;;;;;;213.18;78.00;;;;;;;16.03;41.96;90711.75;4977798;28;20030;-89
2023/01/18 07:52:12;;;;;;;180.02;78.63;;;;;;;15.98;41.75;90710.75;4986055;28;20030;-89
2023/01/18 07:54:38;;;;;;;176.25;80.85;;;;;;;16.00;42.64;90718.34;4977573;28;20085;-89
2023/01/18 07:57:03;;;;;;;187.30;85.30;;;;;;;16.00;42.37;90721.81;4993600;28;20038;-87
2023/01/18 07:59:31;;;;;;;175.07;88.30;;;;;;;16.06;42.96;90729.72;5004136;28;20046;-86
2023/01/18 08:01:56;;;;;;;189.75;90.45;;;;;;;16.08;43.50;90724.44;4990097;28;20074;-86
2023/01/18 08:04:23;;;;;;;172.18;88.38;;;;;;;16.07;43.44;90723.00;4974552;28;20179;-87
2023/01/18 08:06:49;;;;;;;198.02;102.00;;;;;;;16.10;43.12;90743.69;4978825;28;20038;-88
2023/01/18 08:09:15;;;;;;;234.95;97.15;;;;;;;16.10;43.29;90741.66;4975926;28;20045;-86
2023/01/18 08:11:40;;;;;;;206.00;91.63;;;;;;;16.11;43.11;90750.56;4987586;28;20042;-87
2023/01/18 08:14:06;;;;;;;169.45;84.78;;;;;;;16.07;42.71;90756.41;4978972;28;20053;-87
2023/01/18 08:16:31;;;;;;;172.57;84.60;;;;;;;16.09;43.03;90753.84;4993422;28;20034;-86
2023/01/18 08:18:57;;;;;;;164.10;83.80;;;;;;;16.13;43.27;90755.47;5010348;28;20030;-88
2023/01/18 08:21:22;;;;;;;208.32;96.93;;;;;;;16.06;43.00;90765.16;4991882;28;20046;-87
2023/01/18 08:23:49;;;;;;;174.50;90.32;;;;;;;16.09;43.19;90758.59;4974507;28;20061;-87
2023/01/18 08:26:15;;;;;;;206.00;103.82;;;;;;;16.14;43.23;90767.81;4991749;28;20038;-86
2023/01/18 08:28:40;;;;;;;203.02;89.88;;;;;;;16.19;43.24;90777.75;4992504;28;20034;-87
2023/01/18 08:31:09;;;;;;;241.27;112.38;;;;;;;16.19;43.33;90783.22;4977246;28;20049;-88
2023/01/18 08:33:44;;;;;;;191.82;91.35;;;;;;;16.22;42.99;90780.09;4973898;28;20050;-88
2023/01/18 08:36:17;;;;;;;226.57;108.68;;;;;;;16.24;43.46;90799.31;5013287;28;20053;-89
2023/01/18 08:38:45;;;;;;;209.82;95.47;;;;;;;16.17;43.41;90791.94;4993991;28;20038;-90
2023/01/18 08:41:11;;;;;;;214.60;103.90;;;;;;;16.15;43.02;90804.69;4992360;28;20448;-88
2023/01/18 08:43:37;;;;;;;220.63;104.75;;;;;;;16.16;43.23;90808.84;4994692;28;20480;-86
2023/01/18 08:46:03;;;;;;;208.63;92.75;;;;;;;16.21;43.88;90816.81;4997372;28;20046;-88
2023/01/18 08:48:28;;;;;;;207.60;103.20;;;;;;;16.17;43.26;90821.94;4995380;28;20039;-92
2023/01/18 08:50:53;;;;;;;239.13;112.78;;;;;;;16.16;43.30;90825.94;4988373;28;20038;-89
2023/01/18 08:53:19;;;;;;;195.05;95.53;;;;;;;16.30;43.26;90818.16;5012939;28;20030;-91
2023/01/18 08:55:44;;;;;;;202.27;102.15;;;;;;;16.19;43.08;90835.72;4983135;28;20026;-90
2023/01/18 08:58:10;;;;;;;322.92;123.43;;;;;;;16.23;43.06;90838.06;4972468;28;20094;-86
2023/01/18 09:00:36;;;;;;;235.45;106.78;;;;;;;16.20;43.45;90839.16;4990830;28;20044;-86
2023/01/18 09:03:01;;;;;;;216.07;114.70;;;;;;;16.17;43.67;90843.00;5001853;28;20042;-85
2023/01/18 09:05:28;;;;;;;270.00;137.68;;;;;;;16.27;43.37;90852.00;5008796;28;20060;-89
2023/01/18 09:07:53;;;;;;;220.57;114.38;;;;;;;16.24;43.42;90848.38;4975860;28;20129;-91
2023/01/18 09:10:20;;;;;;;219.35;107.88;;;;;;;16.21;43.05;90856.97;4976018;28;20057;-89
2023/01/18 09:12:45;;;;;;;213.52;110.93;;;;;;;16.20;43.44;90860.97;5009515;28;20038;-85
2023/01/18 09:15:11;;;;;;;214.38;110.63;;;;;;;16.29;43.40;90855.59;5006078;28;20042;-86
2023/01/18 09:17:36;;;;;;;205.80;106.30;;;;;;;16.28;43.41;90858.88;4973341;28;20038;-88
2023/01/18 09:20:06;;;;;;;209.23;104.60;;;;;;;16.29;43.21;90866.50;4987399;28;20037;-87
2023/01/18 09:22:31;;;;;;;189.32;98.95;;;;;;;16.27;43.38;90874.53;4990826;28;20062;-88
2023/01/18 09:24:57;;;;;;;196.55;96.15;;;;;;;16.32;43.68;90875.56;4991490;28;20077;-86
2023/01/18 09:27:22;;;;;;;179.80;91.57;;;;;;;16.36;43.39;90873.19;4992587;28;20049;-89
2023/01/18 09:29:51;;;;;;;186.68;88.53;;;;;;;16.32;43.77;90870.13;5008896;28;20034;-89
2023/01/18 09:32:18;;;;;;;195.95;82.63;;;;;;;16.37;43.41;90882.81;4975817;28;20042;-89
2023/01/18 09:34:49;;;;;;;165.75;78.57;;;;;;;16.33;43.31;90879.75;4978485;28;20481;-88
2023/01/18 09:37:16;;;;;;;189.82;83.22;;;;;;;16.30;42.94;90889.03;4993170;28;20133;-87
2023/01/18 09:39:42;;;;;;;168.75;73.85;;;;;;;16.29;42.85;90885.59;4994997;28;20266;-87
2023/01/18 09:42:15;;;;;;;183.20;77.65;;;;;;;16.23;42.49;90882.38;4992500;28;20038;-89
2023/01/18 09:44:41;;;;;;;198.82;74.20;;;;;;;16.30;42.81;90886.31;4994842;28;20097;-88
2023/01/18 09:47:16;;;;;;;172.77;74.88;;;;;;;16.29;43.20;90896.50;4979201;28;20049;-88
2023/01/18 09:49:51;;;;;;;167.45;69.55;;;;;;;16.32;42.83;90895.38;4995053;28;20053;-89
2023/01/18 09:52:31;;;;;;;169.68;69.28;;;;;;;16.31;43.41;90902.13;5011395;28;20045;-89
2023/01/18 09:55:14;;;;;;;240.55;71.40;;;;;;;16.36;43.16;90914.81;5012617;28;20045;-88
2023/01/18 09:57:52;;;;;;;148.82;64.63;;;;;;;16.34;43.22;90913.91;5012721;28;20045;-90
2023/01/18 10:00:20;;;;;;;158.27;62.55;;;;;;;16.36;43.11;90916.81;5022420;28;20097;-89
2023/01/18 10:02:47;;;;;;;168.27;68.03;;;;;;;16.31;43.78;90912.28;4982213;28;20519;-89
2023/01/18 10:05:20;;;;;;;151.63;62.53;;;;;;;16.33;43.29;90915.91;5003940;28;20042;-91
2023/01/18 10:08:01;;;;;;;211.82;74.03;;;;;;;16.33;43.29;90923.38;4990256;28;20111;-89
2023/01/18 10:10:28;;;;;;;172.20;68.55;;;;;;;16.41;43.96;90924.78;4991977;28;20042;-88
2023/01/18 10:13:05;;;;;;;187.77;67.00;;;;;;;16.46;44.50;90921.06;4997777;28;20424;-90
2023/01/18 10:15:33;;;;;;;175.77;63.55;;;;;;;16.43;43.64;90924.22;4983683;28;20516;-90
2023/01/18 10:17:59;;;;;;;154.80;56.70;;;;;;;16.44;43.98;90925.66;4974363;28;20046;-86
2023/01/18 10:20:30;;;;;;;163.35;59.40;;;;;;;16.44;43.64;90920.94;4977383;28;20048;-90
2023/01/18 10:22:57;;;;;;;;;;;;;;;16.45;43.59;90927.81;5008542;28;20045;-85
2023/01/18 10:25:28;;;;;;;160.27;56.72;;;;;;;16.40;43.26;90928.78;4988696;28;20001;-87
2023/01/18 10:28:04;;;;;;;147.65;56.55;;;;;;;16.53;43.49;90938.66;5001836;28;20409;-87
2023/01/18 10:30:39;;;;;;;138.50;52.47;;;;;;;16.39;43.43;90938.22;5008902;28;20516;-89
2023/01/18 10:33:17;;;;;;;154.15;55.42;;;;;;;16.36;42.69;90941.34;4983714;28;20034;-90
2023/01/18 10:35:46;;;;;;;151.93;59.90;;;;;;;16.31;43.40;90947.75;5006809;28;20361;-91
2023/01/18 10:38:14;;;;;;;155.50;52.00;;;;;;;16.33;43.63;90950.63;4976783;28;20041;-88
2023/01/18 10:40:39;;;;;;;150.55;45.90;;;;;;;16.37;43.53;90935.34;4988747;28;20034;-89
2023/01/18 10:43:09;;;;;;;117.43;48.78;;;;;;;16.42;43.12;90941.84;4987832;28;20042;-92
2023/01/18 10:45:34;;;;;;;124.68;49.13;;;;;;;16.37;43.85;90935.34;4979031;28;20080;-92
2023/01/18 10:48:21;;;;;;;119.65;46.20;;;;;;;16.41;43.48;90940.41;4980958;28;20038;-91
2023/01/18 10:50:47;;;;;;;118.47;45.25;;;;;;;16.39;43.84;90940.97;5009942;28;20038;-89
2023/01/18 10:53:32;;;;;;;113.18;45.08;;;;;;;16.46;43.50;90948.34;4999880;28;20065;-90
2023/01/18 10:56:11;;;;;;;98.72;43.60;;;;;;;16.44;43.59;90945.47;4998585;28;20717;-90
2023/01/18 10:58:43;;;;;;;95.70;41.88;;;;;;;16.34;42.91;90939.16;4994522;28;20034;-89
2023/01/18 11:01:19;;;;;;;190.15;47.80;;;;;;;16.33;43.06;90945.19;4990513;28;20038;-89
2023/01/18 11:03:46;;;;;;;93.88;41.13;;;;;;;16.39;43.92;90946.41;4990059;28;20034;-88
2023/01/18 11:06:15;;;;;;;78.20;39.08;;;;;;;16.36;43.32;90952.25;4987480;28;20125;-89
2023/01/18 11:08:41;;;;;;;77.80;38.90;;;;;;;16.49;43.76;90949.22;4988259;28;20149;-88
2023/01/18 11:11:16;;;;;;;79.80;33.80;;;;;;;16.35;43.43;90939.91;4960802;28;20046;-88
2023/01/18 11:13:44;;;;;;;69.55;34.00;;;;;;;16.39;43.82;90937.50;4989829;28;20038;-87
2023/01/18 11:16:13;;;;;;;68.78;32.25;;;;;;;16.33;43.16;90937.00;4990488;28;20041;-88
2023/01/18 11:19:00;;;;;;;62.25;31.55;;;;;;;16.35;43.37;90945.34;4971545;28;20556;-87
2023/01/18 11:21:39;;;;;;;63.70;31.13;;;;;;;16.39;43.69;90942.97;5005888;28;20069;-87
2023/01/18 11:24:06;;;;;;;50.42;28.35;;;;;;;16.35;43.57;90948.06;4973601;28;20249;-87
2023/01/18 11:26:32;;;;;;;53.90;25.17;;;;;;;16.33;43.64;90951.34;4953382;28;20129;-86
2023/01/18 11:28:59;;;;;;;49.83;24.70;;;;;;;16.31;43.44;90945.72;4969457;28;20030;-86
2023/01/18 11:31:45;;;;;;;57.97;23.33;;;;;;;16.34;43.73;90949.34;4984623;28;20054;-87
2023/01/18 11:34:27;;;;;;;52.33;22.92;;;;;;;16.35;43.62;90953.53;4947479;28;20038;-87
2023/01/18 11:36:53;;;;;;;47.72;22.65;;;;;;;16.38;43.55;90958.59;4944148;28;20168;-87
2023/01/18 11:39:21;;;;;;;41.15;21.02;;;;;;;16.39;43.46;90960.03;4965084;28;20055;-88
2023/01/18 11:41:47;;;;;;;130.60;79.55;;;;;;;16.40;43.45;90964.22;4986497;28;20129;-88
2023/01/18 11:44:24;;;;;;;62.88;46.33;;;;;;;16.42;44.27;90971.84;4941183;28;20066;-88
2023/01/18 11:46:51;;;;;;;45.92;29.55;;;;;;;16.54;43.91;90980.28;4958501;28;20061;-89
2023/01/18 11:49:28;;;;;;;54.58;25.13;;;;;;;16.41;43.65;90989.47;4969230;28;20050;-89
2023/01/18 11:52:02;;;;;;;69.85;20.33;;;;;;;16.45;43.76;90987.09;4986416;28;20079;-89
2023/01/18 11:54:45;;;;;;;115.53;28.20;;;;;;;16.39;43.23;90987.31;4946131;28;20563;-88